Ampere, New Jersey
Current Conditions -  °F | °C
As of 6:51 PM on Saturday 20 Dec 2014 (Local Time) from KEWR Reporting Station
Overcast Overcast  
Wind Chill: 26°   Ceiling: 3200
Heat Index: 33°   Visibility: 10mi
Dew Point: 21°   Wind: 8mph
Humidity: 61%   Direction: 310°NW
Pressure: 30.29"   Gusts: NA
Location:  40.7716°N, 74.2073°W
Report Text: KEWR 202351Z 31007KT 10SM OVC032 01/M06 A3029 RMK AO2 SLP256 T00061061 10006 20000 51005
Loading
Personal Weather Stations






























Interactive Weather Map New forecast layout! Learn more

10-Day Weather Forecast

Advertisements
Track Severe Weather on mobile